createdAt,value
2023-01-29T00:00:18.597Z,98.03
2023-01-29T00:03:07.536Z,98.31
2023-01-29T00:05:36.073Z,98.39
2023-01-29T00:08:05.093Z,98.46
2023-01-29T00:10:33.972Z,98.47
2023-01-29T00:13:02.468Z,98.12
2023-01-29T00:15:31.255Z,97.65
2023-01-29T00:18:00.357Z,97.73
2023-01-29T00:20:28.878Z,97.50
2023-01-29T00:22:57.624Z,97.85
2023-01-29T00:25:26.207Z,97.66
2023-01-29T00:27:55.207Z,97.60
2023-01-29T00:30:23.988Z,97.46
2023-01-29T00:32:54.244Z,97.26
2023-01-29T00:35:23.103Z,97.38
2023-01-29T00:37:51.998Z,97.25
2023-01-29T00:40:20.679Z,97.13
2023-01-29T00:43:08.626Z,97.29
2023-01-29T00:45:37.517Z,97.24
2023-01-29T00:48:07.630Z,97.44
2023-01-29T00:50:36.422Z,97.07
2023-01-29T00:53:05.252Z,97.26
2023-01-29T00:55:33.800Z,97.13
2023-01-29T00:58:02.583Z,96.18
2023-01-29T01:00:31.714Z,95.75
2023-01-29T01:03:06.304Z,95.76
2023-01-29T01:05:37.195Z,96.05
2023-01-29T01:08:26.209Z,96.21
2023-01-29T01:11:13.120Z,96.59
2023-01-29T01:13:41.919Z,96.87
2023-01-29T01:16:13.298Z,96.93
2023-01-29T01:18:43.682Z,97.34
2023-01-29T01:21:12.370Z,97.75
2023-01-29T01:23:41.363Z,98.35
2023-01-29T01:26:11.369Z,98.70
2023-01-29T01:28:40.276Z,98.58
2023-01-29T01:31:14.160Z,99.01
2023-01-29T01:33:42.867Z,98.91
2023-01-29T01:36:11.351Z,98.69
2023-01-29T01:38:45.060Z,98.46
2023-01-29T01:41:17.180Z,97.92
2023-01-29T01:43:51.487Z,98.03
2023-01-29T01:46:20.791Z,97.88
2023-01-29T01:48:59.062Z,97.56
2023-01-29T01:51:31.111Z,97.49
2023-01-29T01:54:08.892Z,97.37
2023-01-29T01:56:43.959Z,97.37
2023-01-29T01:59:16.500Z,97.30
2023-01-29T02:01:52.323Z,97.28
2023-01-29T02:04:42.988Z,97.40
2023-01-29T02:07:34.198Z,97.52
2023-01-29T02:10:14.637Z,98.03
2023-01-29T02:12:45.823Z,97.87
2023-01-29T02:15:14.806Z,97.82
2023-01-29T02:17:48.596Z,97.82
2023-01-29T02:20:32.242Z,97.65
2023-01-29T02:23:36.646Z,97.64
2023-01-29T02:26:21.227Z,97.46
2023-01-29T02:29:23.501Z,97.60
2023-01-29T02:32:03.404Z,97.48
2023-01-29T02:35:06.242Z,97.54
2023-01-29T02:38:01.959Z,97.64
2023-01-29T02:40:41.381Z,97.91
2023-01-29T02:43:52.170Z,98.41
2023-01-29T02:46:23.392Z,98.44
2023-01-29T02:49:06.335Z,98.18
2023-01-29T02:51:37.426Z,98.02
2023-01-29T02:54:17.639Z,98.05
2023-01-29T02:56:50.602Z,98.02
2023-01-29T02:59:30.291Z,98.05
2023-01-29T03:02:14.363Z,98.18
2023-01-29T03:04:51.769Z,98.12
2023-01-29T03:07:43.328Z,98.06
2023-01-29T03:10:28.507Z,98.08
2023-01-29T03:13:35.167Z,98.06
2023-01-29T03:16:32.227Z,98.29
2023-01-29T03:19:12.200Z,98.43
2023-01-29T03:22:02.168Z,98.49
2023-01-29T03:24:56.787Z,99.17
2023-01-29T03:27:53.813Z,99.92
2023-01-29T03:30:44.924Z,100.00
2023-01-29T03:33:28.766Z,99.95
2023-01-29T03:36:03.260Z,100.00
2023-01-29T03:38:32.696Z,100.00
2023-01-29T03:41:15.315Z,100.00
2023-01-29T03:43:58.035Z,100.00
2023-01-29T03:46:32.629Z,100.00
2023-01-29T03:49:16.496Z,99.97
2023-01-29T03:51:56.441Z,99.91
2023-01-29T03:54:37.826Z,99.86
2023-01-29T03:57:29.039Z,99.77
2023-01-29T04:00:32.335Z,99.74
2023-01-29T04:03:19.163Z,99.52
2023-01-29T04:06:10.216Z,99.51
2023-01-29T04:08:50.724Z,99.56
2023-01-29T04:11:22.999Z,99.95
2023-01-29T04:13:52.815Z,99.99
2023-01-29T04:17:26.521Z,100.00
2023-01-29T04:20:05.774Z,100.00
2023-01-29T04:22:37.178Z,100.00
2023-01-29T04:25:16.335Z,100.00
2023-01-29T04:27:56.099Z,100.00
2023-01-29T04:30:43.552Z,100.00
2023-01-29T04:33:41.076Z,100.00
2023-01-29T04:36:53.096Z,100.00
2023-01-29T04:39:45.515Z,100.00
2023-01-29T04:42:34.578Z,100.00
2023-01-29T04:45:37.602Z,100.00
2023-01-29T04:48:21.722Z,100.00
2023-01-29T04:50:53.478Z,100.00
2023-01-29T04:53:36.502Z,100.00
2023-01-29T04:56:30.583Z,100.00
2023-01-29T04:59:07.767Z,100.00
2023-01-29T05:01:38.425Z,100.00
2023-01-29T05:04:14.261Z,100.00
2023-01-29T05:06:45.294Z,100.00
2023-01-29T05:09:16.518Z,100.00
2023-01-29T05:11:48.116Z,100.00
2023-01-29T05:14:20.061Z,100.00
2023-01-29T05:16:53.650Z,100.00
2023-01-29T05:19:22.460Z,100.00
2023-01-29T05:21:51.544Z,100.00
2023-01-29T05:24:22.931Z,100.00
2023-01-29T05:27:12.163Z,100.00
2023-01-29T05:29:47.515Z,100.00
2023-01-29T05:32:17.141Z,100.00
2023-01-29T05:34:45.708Z,100.00
2023-01-29T05:37:14.493Z,100.00
2023-01-29T05:39:43.278Z,99.98
2023-01-29T05:42:12.277Z,99.63
2023-01-29T05:44:40.928Z,99.40
2023-01-29T05:47:09.539Z,99.17
2023-01-29T05:49:38.887Z,99.15
2023-01-29T05:52:07.733Z,98.94
2023-01-29T05:54:36.424Z,98.82
2023-01-29T05:57:04.984Z,98.43
2023-01-29T05:59:33.663Z,96.15
2023-01-29T06:02:02.323Z,95.84
2023-01-29T06:04:30.917Z,96.34
2023-01-29T06:06:59.749Z,95.38
2023-01-29T06:09:28.435Z,95.25
2023-01-29T06:11:56.916Z,95.86
2023-01-29T06:14:25.912Z,96.26
2023-01-29T06:16:54.707Z,96.20
2023-01-29T06:19:23.164Z,96.01
2023-01-29T06:21:51.866Z,95.85
2023-01-29T06:24:20.868Z,95.79
2023-01-29T06:26:49.664Z,95.02
2023-01-29T06:29:18.238Z,93.98
2023-01-29T06:31:47.019Z,93.29
2023-01-29T06:34:15.915Z,90.65
2023-01-29T06:36:44.688Z,91.94
2023-01-29T06:39:13.291Z,93.12
2023-01-29T06:41:41.805Z,92.65
2023-01-29T06:44:10.456Z,92.13
2023-01-29T06:46:39.052Z,90.81
2023-01-29T06:50:08.045Z,89.70
2023-01-29T06:53:21.035Z,87.63
2023-01-29T06:56:52.628Z,87.44
2023-01-29T07:00:21.233Z,85.44
2023-01-29T07:08:08.306Z,84.76
2023-01-29T07:11:42.227Z,82.63
2023-01-29T07:15:10.881Z,83.19
2023-01-29T07:18:39.216Z,84.14
2023-01-29T07:21:08.160Z,83.05
2023-01-29T07:23:36.893Z,83.39
2023-01-29T07:26:07.006Z,83.37
2023-01-29T07:28:39.747Z,82.96
2023-01-29T07:31:12.092Z,81.95
2023-01-29T07:33:43.552Z,82.01
2023-01-29T07:36:13.740Z,82.37
2023-01-29T07:38:42.370Z,82.54
2023-01-29T07:41:12.409Z,83.11
2023-01-29T07:43:41.288Z,81.89
2023-01-29T07:46:10.119Z,80.94
2023-01-29T07:48:39.163Z,79.48
2023-01-29T07:51:07.873Z,76.84
2023-01-29T07:53:37.287Z,77.15
2023-01-29T07:56:06.361Z,78.61
2023-01-29T07:58:36.662Z,80.02
2023-01-29T08:01:10.600Z,79.30
2023-01-29T08:03:39.385Z,77.67
2023-01-29T08:06:08.197Z,75.78
2023-01-29T08:08:37.066Z,75.06
2023-01-29T08:11:05.953Z,76.72
2023-01-29T08:13:34.545Z,76.96
2023-01-29T08:16:05.038Z,76.28
2023-01-29T08:18:33.555Z,76.01
2023-01-29T08:21:02.657Z,75.75
2023-01-29T08:23:31.756Z,74.88
2023-01-29T08:26:03.314Z,75.21
2023-01-29T08:28:32.294Z,74.99
2023-01-29T08:31:01.409Z,74.32
2023-01-29T08:33:38.387Z,73.45
2023-01-29T08:36:09.400Z,72.84
2023-01-29T08:38:37.994Z,73.26
2023-01-29T08:41:07.614Z,72.74
2023-01-29T08:43:37.430Z,73.37
2023-01-29T08:46:06.984Z,73.13
2023-01-29T08:48:35.716Z,73.45
2023-01-29T08:51:05.606Z,75.16
2023-01-29T08:53:34.312Z,75.84
2023-01-29T08:56:03.208Z,76.98
2023-01-29T08:58:32.493Z,77.13
2023-01-29T09:01:12.990Z,78.35
2023-01-29T09:03:43.982Z,79.08
2023-01-29T09:06:14.771Z,79.40
2023-01-29T09:08:43.459Z,80.35
2023-01-29T09:11:12.410Z,80.90
2023-01-29T09:13:43.983Z,80.97
2023-01-29T09:16:12.874Z,81.26
2023-01-29T09:18:41.880Z,81.40
2023-01-29T09:21:10.654Z,81.96
2023-01-29T09:23:39.334Z,82.84
2023-01-29T09:27:07.934Z,83.32
2023-01-29T09:29:37.235Z,82.74
2023-01-29T09:32:07.049Z,83.17
2023-01-29T09:34:35.939Z,82.41
2023-01-29T09:37:05.141Z,81.77
2023-01-29T09:39:34.036Z,80.68
2023-01-29T09:42:19.202Z,80.63
2023-01-29T09:45:10.212Z,80.20
2023-01-29T09:47:39.001Z,80.80
2023-01-29T09:50:24.185Z,80.98
2023-01-29T09:53:15.390Z,81.75
2023-01-29T09:55:50.566Z,82.39
2023-01-29T09:58:40.411Z,82.94
2023-01-29T10:01:38.886Z,82.82
2023-01-29T10:04:31.867Z,83.14
2023-01-29T10:07:37.303Z,83.46
2023-01-29T10:10:17.780Z,83.42
2023-01-29T10:13:03.161Z,84.28
2023-01-29T10:16:01.014Z,84.16
2023-01-29T10:18:39.123Z,84.09
2023-01-29T10:21:27.479Z,83.90
2023-01-29T10:24:11.520Z,83.81
2023-01-29T10:26:41.416Z,84.27
2023-01-29T10:29:18.722Z,84.60
2023-01-29T10:31:52.770Z,84.83
2023-01-29T10:34:32.402Z,84.81
2023-01-29T10:37:07.305Z,84.85
2023-01-29T10:39:36.332Z,85.69
2023-01-29T10:42:40.412Z,86.41
2023-01-29T10:45:34.933Z,86.06
2023-01-29T10:48:15.893Z,86.63
2023-01-29T10:50:50.645Z,86.91
2023-01-29T10:53:28.009Z,86.70
2023-01-29T10:56:23.033Z,86.60
2023-01-29T10:58:56.518Z,85.91
2023-01-29T11:01:27.088Z,85.99
2023-01-29T11:03:59.813Z,85.83
2023-01-29T11:06:32.166Z,86.19
2023-01-29T11:12:16.887Z,87.19
2023-01-29T11:15:04.609Z,86.88
2023-01-29T11:17:33.294Z,86.96
2023-01-29T11:20:01.980Z,87.32
2023-01-29T11:22:31.897Z,87.18
2023-01-29T11:26:15.761Z,87.63
2023-01-29T11:33:36.485Z,88.37
2023-01-29T11:36:21.511Z,88.71
2023-01-29T11:39:16.767Z,89.00
2023-01-29T11:42:00.628Z,89.71
2023-01-29T11:44:33.990Z,89.72
2023-01-29T11:47:14.749Z,89.98
2023-01-29T11:49:50.532Z,89.64
2023-01-29T11:52:23.476Z,90.34
2023-01-29T11:55:01.317Z,91.01
2023-01-29T11:57:41.159Z,91.72
2023-01-29T12:00:25.223Z,91.01
2023-01-29T12:03:56.731Z,90.69
2023-01-29T12:10:48.314Z,89.99
2023-01-29T12:14:26.021Z,89.69
2023-01-29T12:18:07.106Z,89.59
2023-01-29T12:20:46.815Z,88.95
2023-01-29T12:23:33.109Z,89.13
2023-01-29T12:26:21.817Z,88.88
2023-01-29T12:29:18.347Z,88.55
2023-01-29T12:32:03.416Z,88.88
2023-01-29T12:34:43.743Z,89.02
2023-01-29T12:37:31.309Z,89.03
2023-01-29T12:40:02.064Z,89.50
2023-01-29T12:42:32.675Z,89.14
2023-01-29T12:45:11.296Z,88.56
2023-01-29T12:47:46.227Z,88.29
2023-01-29T12:50:21.450Z,88.40
2023-01-29T12:52:55.992Z,88.31
2023-01-29T12:55:27.272Z,88.03
2023-01-29T12:58:02.496Z,87.90
2023-01-29T13:00:41.183Z,87.55
2023-01-29T13:03:39.584Z,87.30
2023-01-29T13:07:12.243Z,87.68
2023-01-29T13:10:40.862Z,88.05
2023-01-29T13:13:41.145Z,87.44
2023-01-29T13:16:13.269Z,87.27
2023-01-29T13:18:50.899Z,86.44
2023-01-29T13:21:27.709Z,85.89
2023-01-29T13:25:04.717Z,85.81
2023-01-29T13:28:34.339Z,86.10
2023-01-29T13:32:13.882Z,87.03
2023-01-29T13:35:52.141Z,88.13
2023-01-29T13:39:26.905Z,88.37
2023-01-29T13:43:00.239Z,88.83
2023-01-29T13:46:32.017Z,89.39
2023-01-29T13:50:03.848Z,89.40
2023-01-29T13:52:45.481Z,89.29
2023-01-29T13:55:14.223Z,89.27
2023-01-29T13:57:48.980Z,88.91
2023-01-29T14:00:41.016Z,88.44
2023-01-29T14:03:56.117Z,88.35
2023-01-29T14:07:25.396Z,88.40
2023-01-29T14:10:48.588Z,88.37
2023-01-29T14:13:21.551Z,88.48
2023-01-29T14:16:13.122Z,88.67
2023-01-29T14:19:00.656Z,88.49
2023-01-29T14:21:35.082Z,88.56
2023-01-29T14:24:18.321Z,88.23
2023-01-29T14:26:49.795Z,88.11
2023-01-29T14:29:39.981Z,88.76
2023-01-29T14:32:22.318Z,88.80
2023-01-29T14:34:52.272Z,88.57
2023-01-29T14:37:41.855Z,89.08
2023-01-29T14:40:16.214Z,89.57
2023-01-29T14:42:52.681Z,89.66
2023-01-29T14:45:42.464Z,88.94
2023-01-29T14:48:11.400Z,89.59
2023-01-29T14:50:46.409Z,89.02
2023-01-29T14:54:05.357Z,88.47
2023-01-29T14:56:59.946Z,88.94
2023-01-29T14:59:39.499Z,89.07
2023-01-29T15:02:19.162Z,89.91
2023-01-29T15:04:55.191Z,90.91
2023-01-29T15:07:40.399Z,90.76
2023-01-29T15:10:40.488Z,89.80
2023-01-29T15:13:25.254Z,89.09
2023-01-29T15:16:10.104Z,88.97
2023-01-29T15:19:15.112Z,87.93
2023-01-29T15:22:14.572Z,87.73
2023-01-29T15:24:44.708Z,86.61
2023-01-29T15:27:16.418Z,86.40
2023-01-29T15:30:01.192Z,84.91
2023-01-29T15:32:34.693Z,85.83
2023-01-29T15:35:11.072Z,85.31
2023-01-29T15:37:40.781Z,84.41
2023-01-29T15:40:17.004Z,84.30
2023-01-29T15:42:48.916Z,84.03
2023-01-29T15:45:38.766Z,83.18
2023-01-29T15:48:16.285Z,82.46
2023-01-29T15:50:46.202Z,82.20
2023-01-29T15:53:29.837Z,82.22
2023-01-29T15:56:00.478Z,82.94
2023-01-29T15:58:32.624Z,83.54
2023-01-29T16:01:02.504Z,83.90
2023-01-29T16:03:33.758Z,81.96
2023-01-29T16:06:03.823Z,82.11
2023-01-29T16:08:34.553Z,81.07
2023-01-29T16:11:06.291Z,80.37
2023-01-29T16:13:39.915Z,81.67
2023-01-29T16:16:24.469Z,81.07
2023-01-29T16:19:00.571Z,82.45
2023-01-29T16:21:38.319Z,83.19
2023-01-29T16:24:14.259Z,83.20
2023-01-29T16:26:46.621Z,83.41
2023-01-29T16:29:18.788Z,82.62
2023-01-29T16:31:48.901Z,81.64
2023-01-29T16:34:33.407Z,81.92
2023-01-29T16:37:06.052Z,81.25
2023-01-29T16:39:40.199Z,81.80
2023-01-29T16:42:20.225Z,80.81
2023-01-29T16:45:28.372Z,80.38
2023-01-29T16:48:27.877Z,82.14
2023-01-29T16:51:22.132Z,79.65
2023-01-29T16:54:17.776Z,79.11
2023-01-29T16:56:48.238Z,78.80
2023-01-29T16:59:27.553Z,78.83
2023-01-29T17:01:56.675Z,80.20
2023-01-29T17:04:25.425Z,79.86
2023-01-29T17:07:02.224Z,80.23
2023-01-29T17:09:34.762Z,79.70
2023-01-29T17:12:09.380Z,78.85
2023-01-29T17:14:38.911Z,78.17
2023-01-29T17:17:17.805Z,78.51
2023-01-29T17:19:46.746Z,77.65
2023-01-29T17:22:15.545Z,78.18
2023-01-29T17:24:44.821Z,78.25
2023-01-29T17:27:20.715Z,78.61
2023-01-29T17:29:52.035Z,79.44
2023-01-29T17:32:21.543Z,79.23
2023-01-29T17:34:51.667Z,80.30
2023-01-29T17:37:20.546Z,80.06
2023-01-29T17:39:50.776Z,80.88
2023-01-29T17:42:19.460Z,81.31
2023-01-29T17:44:48.036Z,81.61
2023-01-29T17:47:17.027Z,81.76
2023-01-29T17:49:45.799Z,81.91
2023-01-29T17:52:14.199Z,82.41
2023-01-29T17:54:43.189Z,83.11
2023-01-29T17:57:15.542Z,82.60
2023-01-29T17:59:45.174Z,82.55
2023-01-29T18:02:29.777Z,83.17
2023-01-29T18:04:59.340Z,82.49
2023-01-29T18:07:27.958Z,82.23
2023-01-29T18:09:56.714Z,82.05
2023-01-29T18:12:25.780Z,82.63
2023-01-29T18:14:54.292Z,81.57
2023-01-29T18:17:23.544Z,81.46
2023-01-29T18:19:52.582Z,81.48
2023-01-29T18:22:21.371Z,81.39
2023-01-29T18:24:50.160Z,80.94
2023-01-29T18:27:19.103Z,80.26
2023-01-29T18:29:50.304Z,81.30
2023-01-29T18:33:18.686Z,81.63
2023-01-29T18:36:27.411Z,81.53
2023-01-29T18:38:57.436Z,80.55
2023-01-29T18:41:26.429Z,81.03
2023-01-29T18:43:55.135Z,80.76
2023-01-29T18:46:24.619Z,81.06
2023-01-29T18:48:53.540Z,81.08
2023-01-29T18:51:22.503Z,81.23
2023-01-29T18:53:52.100Z,82.04
2023-01-29T18:56:20.977Z,81.68
2023-01-29T18:58:52.412Z,81.90
2023-01-29T19:01:24.686Z,81.87
2023-01-29T19:03:54.370Z,82.17
2023-01-29T19:06:22.912Z,82.29
2023-01-29T19:08:51.708Z,82.45
2023-01-29T19:11:20.690Z,82.84
2023-01-29T19:13:50.303Z,82.91
2023-01-29T19:16:19.000Z,82.87
2023-01-29T19:18:48.000Z,83.35
2023-01-29T19:21:22.003Z,83.54
2023-01-29T19:23:50.989Z,84.10
2023-01-29T19:26:19.708Z,83.99
2023-01-29T19:28:48.566Z,84.17
2023-01-29T19:31:17.472Z,84.18
2023-01-29T19:33:46.064Z,84.22
2023-01-29T19:36:14.625Z,84.30
2023-01-29T19:38:43.424Z,84.66
2023-01-29T19:41:12.011Z,84.72
2023-01-29T19:43:42.326Z,84.53
2023-01-29T19:46:11.157Z,84.42
2023-01-29T19:48:40.109Z,84.08
2023-01-29T19:52:12.880Z,84.40
2023-01-29T19:55:44.667Z,85.33
2023-01-29T19:59:13.152Z,85.92
2023-01-29T20:02:45.533Z,86.82
2023-01-29T20:06:13.923Z,86.84
2023-01-29T20:09:42.316Z,87.83
2023-01-29T20:13:11.210Z,88.00
2023-01-29T20:16:39.947Z,87.66
2023-01-29T20:19:17.028Z,87.77
2023-01-29T20:21:49.924Z,88.15
2023-01-29T20:24:18.553Z,88.23
2023-01-29T20:26:47.976Z,88.32
2023-01-29T20:29:16.537Z,88.32
2023-01-29T20:31:45.253Z,89.18
2023-01-29T20:34:14.017Z,89.40
2023-01-29T20:36:42.905Z,89.03
2023-01-29T20:39:11.903Z,88.95
2023-01-29T20:41:41.913Z,89.05
2023-01-29T20:44:10.586Z,89.14
2023-01-29T20:46:39.399Z,89.22
2023-01-29T20:49:08.105Z,88.69
2023-01-29T20:51:36.566Z,88.61
2023-01-29T20:54:05.663Z,88.25
2023-01-29T20:56:40.858Z,87.72
2023-01-29T20:59:17.838Z,87.13
2023-01-29T21:01:47.350Z,86.46
2023-01-29T21:04:16.171Z,86.00
2023-01-29T21:07:50.091Z,85.23
2023-01-29T21:11:18.536Z,85.10
2023-01-29T21:14:47.064Z,84.73
2023-01-29T21:18:19.960Z,84.46
2023-01-29T21:20:52.024Z,84.53
2023-01-29T21:23:21.749Z,84.53
2023-01-29T21:25:50.227Z,84.26
2023-01-29T21:28:19.090Z,84.02
2023-01-29T21:30:48.350Z,83.50
2023-01-29T21:33:16.891Z,83.34
2023-01-29T21:35:45.492Z,83.38
2023-01-29T21:38:14.579Z,83.27
2023-01-29T21:40:43.157Z,83.69
2023-01-29T21:43:11.641Z,83.53
2023-01-29T21:45:41.491Z,83.58
2023-01-29T21:48:11.720Z,83.47
2023-01-29T21:50:40.154Z,83.58
2023-01-29T21:53:08.840Z,83.67
2023-01-29T21:55:37.655Z,83.88
2023-01-29T21:58:06.315Z,83.87
2023-01-29T22:00:34.896Z,84.01
2023-01-29T22:03:04.412Z,83.84
2023-01-29T22:05:33.820Z,83.89
2023-01-29T22:08:02.916Z,83.90
2023-01-29T22:10:34.250Z,83.84
2023-01-29T22:13:02.911Z,83.57
2023-01-29T22:15:31.524Z,83.35
2023-01-29T22:18:00.516Z,83.39
2023-01-29T22:20:30.861Z,83.37
2023-01-29T22:23:59.226Z,83.48
2023-01-29T22:27:27.722Z,83.61
2023-01-29T22:30:56.411Z,83.47
2023-01-29T22:33:25.812Z,82.90
2023-01-29T22:35:55.016Z,82.94
2023-01-29T22:38:24.540Z,82.75
2023-01-29T22:40:54.280Z,82.53
2023-01-29T22:43:24.222Z,82.70
2023-01-29T22:45:52.832Z,82.19
2023-01-29T22:48:23.308Z,81.85
2023-01-29T22:51:19.797Z,82.42
2023-01-29T22:53:52.050Z,82.02
2023-01-29T22:56:25.456Z,82.30
2023-01-29T22:58:55.859Z,82.30
2023-01-29T23:01:28.038Z,82.37
2023-01-29T23:03:57.258Z,82.75
2023-01-29T23:06:26.149Z,82.49
2023-01-29T23:08:54.839Z,82.15
2023-01-29T23:11:24.220Z,82.14
2023-01-29T23:13:54.667Z,82.20
2023-01-29T23:16:27.747Z,81.89
2023-01-29T23:18:57.397Z,82.08
2023-01-29T23:21:27.454Z,82.00
2023-01-29T23:23:58.728Z,82.21
2023-01-29T23:26:47.812Z,82.33
2023-01-29T23:29:16.993Z,82.03
2023-01-29T23:31:45.740Z,82.01
2023-01-29T23:34:15.311Z,82.34
2023-01-29T23:36:44.493Z,82.58
2023-01-29T23:39:13.589Z,82.74
2023-01-29T23:41:42.062Z,82.58
2023-01-29T23:44:10.899Z,82.36
2023-01-29T23:46:39.881Z,82.06
2023-01-29T23:49:08.864Z,82.25
2023-01-29T23:51:37.609Z,82.48
2023-01-29T23:54:06.702Z,82.05
2023-01-29T23:56:35.102Z,81.92
2023-01-29T23:59:03.856Z,81.88
